Time;durP1;ratioP1;P1;durP2;ratioP2;P2;SDS_P1;SDS_P2;PMS_P1;PMS_P2;Temp;Humidity;BMP_temperature;BMP_pressure;BME280_temperature;BME280_humidity;BME280_pressure;Samples;Min_cycle;Max_cycle;Signal;HPM_P1;HPM_P2
2022/03/31 00:00:29;;;;;;;;;;;;;;;;;;2098027;28;19924;-44
2022/03/31 00:01:30;;;;;;;;;;;;;;;;;;2098040;28;20289;-44
2022/03/31 00:02:32;;;;;;;;;;;;;;;;;;2097211;28;19932;-44
2022/03/31 00:03:34;;;;;;;;;;;;;;;;;;2097853;28;19931;-43
2022/03/31 00:04:34;;;;;;;;;;;;;;;;;;2097402;28;20297;-43
2022/03/31 00:05:36;;;;;;;;;;;;;;;;;;2097122;28;20147;-43
2022/03/31 00:06:36;;;;;;;;;;;;;;;;;;2092602;28;19925;-43
2022/03/31 00:07:38;;;;;;;;;;;;;;;;;;2095892;28;19932;-44
2022/03/31 00:08:39;;;;;;;;;;;;;;;;;;2098015;28;19924;-43
2022/03/31 00:09:40;;;;;;;;;;;;;;;;;;2098498;28;19925;-49
2022/03/31 00:10:41;;;;;;;;;;;;;;;;;;2098025;28;19932;-52
2022/03/31 00:11:42;;;;;;;;;;;;;;;;;;2097813;28;19947;-48
2022/03/31 00:12:43;;;;;;;;;;;;;;;;;;2098017;28;20370;-48
2022/03/31 00:13:45;;;;;;;;;;;;;;;;;;2097942;28;19924;-49
2022/03/31 00:14:47;;;;;;;;;;;;;;;;;;2098151;28;20377;-43
2022/03/31 00:15:48;;;;;;;;;;;;;;;;;;2098195;28;19933;-43
2022/03/31 00:16:49;;;;;;;;;;;;;;;;;;2097902;28;19946;-43
2022/03/31 00:17:50;;;;;;;;;;;;;;;;;;2097817;28;19924;-44
2022/03/31 00:18:51;;;;;;;;;;;;;;;;;;2097995;28;20405;-44
2022/03/31 00:19:52;;;;;;;;;;;;;;;;;;2098044;28;19931;-44
2022/03/31 00:20:56;;;;;;;;;;;;;;;;;;2097896;28;19924;-44
2022/03/31 00:21:57;;;;;;;;;;;;;;;;;;2098079;28;20297;-48
2022/03/31 00:22:58;;;;;;;;;;;;;;;;;;2098162;28;19954;-44
2022/03/31 00:23:59;;;;;;;;;;;;;;;;;;2097831;28;19970;-52
2022/03/31 00:25:00;;;;;;;;;;;;;;;;;;2097921;28;20395;-52
2022/03/31 00:26:01;;;;;;;;;;;;;;;;;;2097904;28;19924;-48
2022/03/31 00:27:02;;;;;;;;;;;;;;;;;;2097730;28;19928;-48
2022/03/31 00:28:03;;;;;;;;;;;;;;;;;;2098040;28;19932;-47
2022/03/31 00:29:05;;;;;;;;;;;;;;;;;;2097871;28;19952;-48
2022/03/31 00:30:05;;;;;;;;;;;;;;;;;;2097950;28;20381;-49
2022/03/31 00:31:07;;;;;;;;;;;;;;;;;;2097903;28;19924;-49
2022/03/31 00:32:09;;;;;;;;;;;;;;;;;;2097520;28;20007;-44
2022/03/31 00:33:10;;;;;;;;;;;;;;;;;;2089877;28;20382;-44
2022/03/31 00:34:12;;;;;;;;;;;;;;;;;;2089799;28;19931;-44
2022/03/31 00:35:13;;;;;;;;;;;;;;;;;;2089575;28;20378;-44
2022/03/31 00:36:14;;;;;;;;;;;;;;;;;;2089521;28;20262;-44
2022/03/31 00:37:15;;;;;;;;;;;;;;;;;;2089603;28;19924;-44
2022/03/31 00:38:16;;;;;;;;;;;;;;;;;;2089518;28;19925;-45
2022/03/31 00:39:29;;;;;;;;;;;;;;;;;;2089725;28;19932;-44
2022/03/31 00:40:30;;;;;;;;;;;;;;;;;;2089523;28;19990;-44
2022/03/31 00:41:31;;;;;;;;;;;;;;;;;;2089470;28;20293;-44
2022/03/31 00:42:32;;;;;;;;;;;;;;;;;;2089569;28;19925;-43
2022/03/31 00:43:33;;;;;;;;;;;;;;;;;;2089544;28;19928;-43
2022/03/31 00:44:34;;;;;;;;;;;;;;;;;;2089506;28;20394;-44
2022/03/31 00:45:46;;;;;;;;;;;;;;;;;;2089411;28;20400;-44
2022/03/31 00:46:47;;;;;;;;;;;;;;;;;;2089605;28;19972;-44
2022/03/31 00:47:48;;;;;;;;;;;;;;;;;;2093300;28;19925;-44
2022/03/31 00:48:49;;;;;;;;;;;;;;;;;;2097984;28;19925;-44
2022/03/31 00:49:50;;;;;;;;;;;;;;;;;;2097761;28;19974;-44
2022/03/31 00:50:52;;;;;;;;;;;;;;;;;;2098093;28;19925;-50
2022/03/31 00:51:53;;;;;;;;;;;;;;;;;;2097613;28;19928;-49
2022/03/31 00:52:54;;;;;;;;;;;;;;;;;;2097750;28;19924;-47
2022/03/31 00:54:15;;;;;;;;;;;;;;;;;;2097778;28;20011;-49
2022/03/31 00:55:18;;;;;;;;;;;;;;;;;;2097770;28;20301;-48
2022/03/31 00:56:19;;;;;;;;;;;;;;;;;;2097627;28;19924;-49
2022/03/31 00:57:20;;;;;;;;;;;;;;;;;;2097626;28;19935;-48
2022/03/31 00:58:21;;;;;;;;;;;;;;;;;;2097721;28;19925;-47
2022/03/31 00:59:22;;;;;;;;;;;;;;;;;;2097671;28;19924;-48
2022/03/31 01:00:23;;;;;;;;;;;;;;;;;;2097483;28;20336;-49
2022/03/31 01:01:24;;;;;;;;;;;;;;;;;;2097632;28;19929;-47
2022/03/31 01:02:25;;;;;;;;;;;;;;;;;;2097885;28;20374;-45
2022/03/31 01:03:26;;;;;;;;;;;;;;;;;;2097598;28;19925;-44
2022/03/31 01:04:27;;;;;;;;;;;;;;;;;;2097713;28;20373;-44
2022/03/31 01:05:28;;;;;;;;;;;;;;;;;;2097480;28;19924;-49
2022/03/31 01:06:29;;;;;;;;;;;;;;;;;;2097385;28;20285;-50
2022/03/31 01:07:31;;;;;;;;;;;;;;;;;;2097506;28;19925;-49
2022/03/31 01:08:31;;;;;;;;;;;;;;;;;;2097204;28;20399;-49
2022/03/31 01:09:32;;;;;;;;;;;;;;;;;;2097729;28;19931;-49
2022/03/31 01:10:33;;;;;;;;;;;;;;;;;;2097592;28;19925;-47
2022/03/31 01:11:34;;;;;;;;;;;;;;;;;;2098147;28;19924;-48
2022/03/31 01:12:36;;;;;;;;;;;;;;;;;;2097703;28;19931;-48
2022/03/31 01:13:36;;;;;;;;;;;;;;;;;;2097984;28;19924;-44
2022/03/31 01:14:38;;;;;;;;;;;;;;;;;;2097553;28;19971;-44
2022/03/31 01:15:39;;;;;;;;;;;;;;;;;;2097561;28;19934;-44
2022/03/31 01:16:40;;;;;;;;;;;;;;;;;;2097601;28;19982;-44
2022/03/31 01:17:41;;;;;;;;;;;;;;;;;;2097524;28;20377;-45
2022/03/31 01:18:42;;;;;;;;;;;;;;;;;;2097575;28;19924;-44
2022/03/31 01:19:43;;;;;;;;;;;;;;;;;;2097699;28;19924;-44
2022/03/31 01:20:44;;;;;;;;;;;;;;;;;;2097569;28;19924;-44
2022/03/31 01:21:46;;;;;;;;;;;;;;;;;;2097303;28;20377;-44
2022/03/31 01:22:47;;;;;;;;;;;;;;;;;;2097660;28;19925;-44
2022/03/31 01:23:48;;;;;;;;;;;;;;;;;;2097330;28;19974;-47
2022/03/31 01:24:49;;;;;;;;;;;;;;;;;;2096822;28;20455;-45
2022/03/31 01:25:50;;;;;;;;;;;;;;;;;;2096437;28;20326;-43
2022/03/31 01:26:51;;;;;;;;;;;;;;;;;;2097195;28;20285;-43
2022/03/31 01:27:52;;;;;;;;;;;;;;;;;;2096378;28;19925;-45
2022/03/31 01:28:53;;;;;;;;;;;;;;;;;;2097017;28;19975;-43
2022/03/31 01:29:54;;;;;;;;;;;;;;;;;;2097271;28;19924;-44
2022/03/31 01:30:55;;;;;;;;;;;;;;;;;;2097274;28;20361;-48
2022/03/31 01:31:57;;;;;;;;;;;;;;;;;;2097516;28;19924;-48
2022/03/31 01:32:59;;;;;;;;;;;;;;;;;;2097417;28;19929;-48
2022/03/31 01:34:00;;;;;;;;;;;;;;;;;;2096898;28;20340;-48
2022/03/31 01:35:01;;;;;;;;;;;;;;;;;;2097387;28;19925;-50
2022/03/31 01:36:04;;;;;;;;;;;;;;;;;;2097982;28;19928;-48
2022/03/31 01:37:05;;;;;;;;;;;;;;;;;;2098752;28;20388;-49
2022/03/31 01:38:06;;;;;;;;;;;;;;;;;;2098433;28;19936;-48
2022/03/31 01:39:07;;;;;;;;;;;;;;;;;;2096414;28;19978;-47
2022/03/31 01:40:08;;;;;;;;;;;;;;;;;;2099161;28;20015;-50
2022/03/31 01:41:12;;;;;;;;;;;;;;;;;;2098649;28;19930;-48
2022/03/31 01:42:13;;;;;;;;;;;;;;;;;;2098819;28;19947;-48
2022/03/31 01:43:14;;;;;;;;;;;;;;;;;;2098622;28;20396;-48
2022/03/31 01:44:16;;;;;;;;;;;;;;;;;;2098529;28;19931;-48
2022/03/31 01:45:18;;;;;;;;;;;;;;;;;;2097023;28;19924;-50
2022/03/31 01:46:19;;;;;;;;;;;;;;;;;;2098816;28;19928;-50
2022/03/31 01:47:20;;;;;;;;;;;;;;;;;;2099107;28;19928;-47
2022/03/31 01:48:21;;;;;;;;;;;;;;;;;;2098715;28;19994;-48
2022/03/31 01:49:22;;;;;;;;;;;;;;;;;;2098969;28;20011;-47
2022/03/31 01:50:24;;;;;;;;;;;;;;;;;;2098388;28;20344;-49
2022/03/31 01:51:25;;;;;;;;;;;;;;;;;;2098702;28;20019;-48
2022/03/31 01:52:27;;;;;;;;;;;;;;;;;;2098663;28;19986;-49
2022/03/31 01:53:29;;;;;;;;;;;;;;;;;;2098530;28;19947;-49
2022/03/31 01:54:30;;;;;;;;;;;;;;;;;;2099041;28;19925;-45
2022/03/31 01:55:31;;;;;;;;;;;;;;;;;;2096850;28;19936;-45
2022/03/31 01:56:32;;;;;;;;;;;;;;;;;;2090534;28;20243;-44
2022/03/31 01:57:33;;;;;;;;;;;;;;;;;;2097221;28;19924;-44
2022/03/31 01:58:34;;;;;;;;;;;;;;;;;;2098460;28;19924;-44
2022/03/31 01:59:35;;;;;;;;;;;;;;;;;;2098570;28;19925;-44
2022/03/31 02:00:36;;;;;;;;;;;;;;;;;;2090527;28;19948;-44
2022/03/31 02:01:37;;;;;;;;;;;;;;;;;;2098098;28;19926;-44
2022/03/31 02:02:39;;;;;;;;;;;;;;;;;;2098647;28;19924;-44
2022/03/31 02:03:40;;;;;;;;;;;;;;;;;;2098497;28;19928;-44
2022/03/31 02:04:41;;;;;;;;;;;;;;;;;;2098261;28;19924;-44
2022/03/31 02:05:42;;;;;;;;;;;;;;;;;;2097694;28;19932;-44
2022/03/31 02:06:43;;;;;;;;;;;;;;;;;;2098678;28;19925;-43
2022/03/31 02:07:44;;;;;;;;;;;;;;;;;;2098163;28;20000;-49
2022/03/31 02:08:46;;;;;;;;;;;;;;;;;;2098758;28;19924;-50
2022/03/31 02:09:47;;;;;;;;;;;;;;;;;;2098493;28;19933;-49
2022/03/31 02:10:48;;;;;;;;;;;;;;;;;;2098239;28;19928;-48
2022/03/31 02:11:50;;;;;;;;;;;;;;;;;;2098110;28;19948;-49
2022/03/31 02:12:50;;;;;;;;;;;;;;;;;;2098752;28;19950;-47
2022/03/31 02:13:52;;;;;;;;;;;;;;;;;;2098418;28;19942;-50
2022/03/31 02:14:53;;;;;;;;;;;;;;;;;;2098304;28;19932;-49
2022/03/31 02:15:55;;;;;;;;;;;;;;;;;;2098862;28;19924;-48
2022/03/31 02:16:56;;;;;;;;;;;;;;;;;;2098280;28;19924;-49
2022/03/31 02:17:57;;;;;;;;;;;;;;;;;;2098469;28;20339;-48
2022/03/31 02:18:58;;;;;;;;;;;;;;;;;;2098491;28;19955;-48
2022/03/31 02:19:59;;;;;;;;;;;;;;;;;;2097919;28;19924;-48
2022/03/31 02:21:00;;;;;;;;;;;;;;;;;;2098480;28;19929;-48
2022/03/31 02:22:01;;;;;;;;;;;;;;;;;;2098618;28;19971;-49
2022/03/31 02:23:02;;;;;;;;;;;;;;;;;;2097923;28;19932;-48
2022/03/31 02:24:03;;;;;;;;;;;;;;;;;;2098490;28;19928;-48
2022/03/31 02:25:05;;;;;;;;;;;;;;;;;;2097996;28;19924;-48
2022/03/31 02:26:06;;;;;;;;;;;;;;;;;;2096315;28;19948;-49
2022/03/31 02:27:07;;;;;;;;;;;;;;;;;;2098618;28;19925;-51
2022/03/31 02:28:08;;;;;;;;;;;;;;;;;;2098391;28;19924;-50
2022/03/31 02:29:09;;;;;;;;;;;;;;;;;;2098412;28;19924;-48
2022/03/31 02:30:10;;;;;;;;;;;;;;;;;;2098470;28;19998;-48
2022/03/31 02:31:11;;;;;;;;;;;;;;;;;;2097449;28;19932;-45
2022/03/31 02:32:13;;;;;;;;;;;;;;;;;;2097629;28;19931;-44
2022/03/31 02:33:13;;;;;;;;;;;;;;;;;;2098398;28;19925;-44
2022/03/31 02:34:15;;;;;;;;;;;;;;;;;;2098390;28;19929;-44
2022/03/31 02:35:17;;;;;;;;;;;;;;;;;;2098229;28;19924;-43
2022/03/31 02:36:17;;;;;;;;;;;;;;;;;;2098573;28;20421;-44
2022/03/31 02:37:19;;;;;;;;;;;;;;;;;;2097684;28;19931;-44
2022/03/31 02:38:19;;;;;;;;;;;;;;;;;;2097686;28;19924;-44
2022/03/31 02:39:20;;;;;;;;;;;;;;;;;;2097792;28;20400;-44
2022/03/31 02:40:21;;;;;;;;;;;;;;;;;;2098209;28;19932;-43
2022/03/31 02:41:22;;;;;;;;;;;;;;;;;;2097743;28;19932;-43
2022/03/31 02:42:23;;;;;;;;;;;;;;;;;;2097867;28;20381;-43
2022/03/31 02:43:24;;;;;;;;;;;;;;;;;;2098699;28;19932;-44
2022/03/31 02:44:25;;;;;;;;;;;;;;;;;;2098393;28;19997;-45
2022/03/31 02:45:26;;;;;;;;;;;;;;;;;;2098190;28;19993;-44
2022/03/31 02:46:28;;;;;;;;;;;;;;;;;;2098374;28;19939;-44
2022/03/31 02:47:29;;;;;;;;;;;;;;;;;;2096056;28;20000;-44
2022/03/31 02:48:30;;;;;;;;;;;;;;;;;;2098138;28;19932;-44
2022/03/31 02:49:31;;;;;;;;;;;;;;;;;;2098219;28;19951;-43
2022/03/31 02:50:32;;;;;;;;;;;;;;;;;;2098099;28;20007;-45
2022/03/31 02:51:33;;;;;;;;;;;;;;;;;;2098215;28;19924;-44
2022/03/31 02:55:24;;;;;;;;;;;;;;;;;;2096841;28;20008;-44
2022/03/31 02:56:25;;;;;;;;;;;;;;;;;;2097636;28;20130;-45
2022/03/31 02:57:26;;;;;;;;;;;;;;;;;;2098192;28;19941;-44
2022/03/31 02:58:27;;;;;;;;;;;;;;;;;;2097567;28;19940;-45
2022/03/31 02:59:30;;;;;;;;;;;;;;;;;;2098550;28;19924;-46
2022/03/31 03:00:32;;;;;;;;;;;;;;;;;;2098316;28;19933;-44
2022/03/31 03:01:33;;;;;;;;;;;;;;;;;;2098352;28;19925;-45
2022/03/31 03:02:34;;;;;;;;;;;;;;;;;;2098130;28;19924;-44
2022/03/31 03:03:35;;;;;;;;;;;;;;;;;;2097927;28;19986;-46
2022/03/31 03:04:36;;;;;;;;;;;;;;;;;;2098256;28;19925;-47
2022/03/31 03:05:37;;;;;;;;;;;;;;;;;;2098484;28;19970;-45
2022/03/31 03:06:38;;;;;;;;;;;;;;;;;;2098290;28;19940;-46
2022/03/31 03:07:39;;;;;;;;;;;;;;;;;;2098209;28;19932;-46
2022/03/31 03:08:40;;;;;;;;;;;;;;;;;;2098302;28;20308;-45
2022/03/31 03:09:41;;;;;;;;;;;;;;;;;;2096427;28;19936;-46
2022/03/31 03:10:42;;;;;;;;;;;;;;;;;;2098190;28;20019;-46
2022/03/31 03:11:43;;;;;;;;;;;;;;;;;;2097733;28;20377;-46
2022/03/31 03:12:44;;;;;;;;;;;;;;;;;;2098427;28;20011;-46
2022/03/31 03:13:46;;;;;;;;;;;;;;;;;;2097988;28;19924;-45
2022/03/31 03:14:47;;;;;;;;;;;;;;;;;;2098223;28;20328;-46
2022/03/31 03:15:48;;;;;;;;;;;;;;;;;;2098024;28;19931;-47
2022/03/31 03:16:49;;;;;;;;;;;;;;;;;;2098427;28;19962;-46
2022/03/31 03:17:50;;;;;;;;;;;;;;;;;;2098090;28;19935;-48
2022/03/31 03:18:52;;;;;;;;;;;;;;;;;;2098015;28;19943;-48
2022/03/31 03:19:52;;;;;;;;;;;;;;;;;;2097981;28;20057;-46
2022/03/31 03:20:54;;;;;;;;;;;;;;;;;;2098138;28;20059;-45
2022/03/31 03:21:54;;;;;;;;;;;;;;;;;;2098367;28;19925;-44
2022/03/31 03:22:56;;;;;;;;;;;;;;;;;;2097335;28;20388;-45
2022/03/31 03:23:56;;;;;;;;;;;;;;;;;;2098078;28;19924;-44
2022/03/31 03:24:57;;;;;;;;;;;;;;;;;;2098328;28;20335;-44
2022/03/31 03:25:58;;;;;;;;;;;;;;;;;;2098045;28;19931;-44
2022/03/31 03:26:59;;;;;;;;;;;;;;;;;;2098091;28;19924;-43
2022/03/31 03:28:00;;;;;;;;;;;;;;;;;;2098116;28;20170;-45
2022/03/31 03:29:01;;;;;;;;;;;;;;;;;;2098375;28;19983;-46
2022/03/31 03:30:02;;;;;;;;;;;;;;;;;;2097676;28;20301;-44
2022/03/31 03:31:03;;;;;;;;;;;;;;;;;;2098006;28;19928;-45
2022/03/31 03:32:04;;;;;;;;;;;;;;;;;;2098280;28;19967;-48
2022/03/31 03:33:06;;;;;;;;;;;;;;;;;;2097862;28;19924;-44
2022/03/31 03:34:07;;;;;;;;;;;;;;;;;;2097806;28;19924;-44
2022/03/31 03:35:09;;;;;;;;;;;;;;;;;;2097771;28;19935;-44
2022/03/31 03:36:11;;;;;;;;;;;;;;;;;;2097662;28;20389;-44
2022/03/31 03:37:13;;;;;;;;;;;;;;;;;;2098180;28;19925;-44
2022/03/31 03:38:14;;;;;;;;;;;;;;;;;;2097908;28;19932;-44
2022/03/31 03:39:15;;;;;;;;;;;;;;;;;;2098093;28;19924;-44
2022/03/31 03:40:16;;;;;;;;;;;;;;;;;;2097993;28;19925;-44
2022/03/31 03:41:17;;;;;;;;;;;;;;;;;;2098170;28;19933;-47
2022/03/31 03:42:19;;;;;;;;;;;;;;;;;;2097997;28;19931;-49
2022/03/31 03:43:21;;;;;;;;;;;;;;;;;;2098048;28;19936;-49
2022/03/31 03:44:22;;;;;;;;;;;;;;;;;;2098074;28;19924;-48
2022/03/31 03:45:23;;;;;;;;;;;;;;;;;;2097984;28;19948;-47
2022/03/31 03:46:24;;;;;;;;;;;;;;;;;;2097908;28;19932;-48
2022/03/31 03:47:25;;;;;;;;;;;;;;;;;;2097947;28;19978;-50
2022/03/31 03:48:26;;;;;;;;;;;;;;;;;;2098144;28;19924;-48
2022/03/31 03:49:27;;;;;;;;;;;;;;;;;;2097743;28;19982;-44
2022/03/31 03:50:28;;;;;;;;;;;;;;;;;;2097848;28;20366;-45
2022/03/31 03:51:29;;;;;;;;;;;;;;;;;;2097257;28;19925;-45
2022/03/31 03:52:30;;;;;;;;;;;;;;;;;;2097885;28;19951;-45
2022/03/31 03:53:31;;;;;;;;;;;;;;;;;;2097751;28;19928;-45
2022/03/31 03:54:32;;;;;;;;;;;;;;;;;;2097668;28;19925;-46
2022/03/31 03:55:34;;;;;;;;;;;;;;;;;;2097555;28;20290;-47
2022/03/31 03:56:35;;;;;;;;;;;;;;;;;;2097850;28;19935;-48
2022/03/31 03:57:36;;;;;;;;;;;;;;;;;;2098376;28;19931;-46
2022/03/31 03:58:37;;;;;;;;;;;;;;;;;;2097250;28;19924;-47
2022/03/31 03:59:38;;;;;;;;;;;;;;;;;;2097846;28;20406;-55
2022/03/31 04:00:39;;;;;;;;;;;;;;;;;;2098066;28;19924;-47
2022/03/31 04:01:40;;;;;;;;;;;;;;;;;;2098184;28;20386;-55
2022/03/31 04:02:41;;;;;;;;;;;;;;;;;;2098392;28;19974;-46
2022/03/31 04:03:42;;;;;;;;;;;;;;;;;;2098052;28;19925;-46
2022/03/31 04:04:43;;;;;;;;;;;;;;;;;;2097863;28;19928;-46
2022/03/31 04:05:44;;;;;;;;;;;;;;;;;;2092844;28;20298;-55
2022/03/31 04:06:45;;;;;;;;;;;;;;;;;;2090339;28;20393;-47
2022/03/31 04:07:47;;;;;;;;;;;;;;;;;;2089746;28;19925;-46
2022/03/31 04:08:47;;;;;;;;;;;;;;;;;;2091931;28;19924;-56
2022/03/31 04:09:49;;;;;;;;;;;;;;;;;;2098016;28;20275;-55
2022/03/31 04:10:49;;;;;;;;;;;;;;;;;;2098280;28;19924;-54
2022/03/31 04:11:51;;;;;;;;;;;;;;;;;;2097921;28;19928;-55
2022/03/31 04:12:51;;;;;;;;;;;;;;;;;;2097312;28;19932;-54
2022/03/31 04:13:53;;;;;;;;;;;;;;;;;;2097974;28;19979;-55
2022/03/31 04:14:53;;;;;;;;;;;;;;;;;;2098021;28;19928;-46
2022/03/31 04:15:55;;;;;;;;;;;;;;;;;;2098398;28;19924;-48
2022/03/31 04:16:56;;;;;;;;;;;;;;;;;;2097886;28;19967;-46
2022/03/31 04:17:57;;;;;;;;;;;;;;;;;;2092727;28;19928;-46
2022/03/31 04:18:57;;;;;;;;;;;;;;;;;;2089882;28;19975;-46
2022/03/31 04:19:59;;;;;;;;;;;;;;;;;;2089899;28;19925;-46
2022/03/31 04:21:02;;;;;;;;;;;;;;;;;;2089653;28;20520;-46
2022/03/31 04:22:03;;;;;;;;;;;;;;;;;;2089879;28;19987;-54
2022/03/31 04:23:05;;;;;;;;;;;;;;;;;;2089679;28;20286;-54
2022/03/31 04:24:06;;;;;;;;;;;;;;;;;;2089856;28;19990;-54
2022/03/31 04:25:07;;;;;;;;;;;;;;;;;;2090045;28;20378;-46
2022/03/31 04:26:09;;;;;;;;;;;;;;;;;;2089733;28;19932;-46
2022/03/31 04:27:10;;;;;;;;;;;;;;;;;;2089809;28;19932;-48
2022/03/31 04:28:11;;;;;;;;;;;;;;;;;;2089564;28;20405;-46
2022/03/31 04:29:12;;;;;;;;;;;;;;;;;;2089853;28;19932;-47
2022/03/31 04:30:18;;;;;;;;;;;;;;;;;;2096122;28;19928;-46
2022/03/31 04:31:19;;;;;;;;;;;;;;;;;;2097935;28;19924;-46
2022/03/31 04:32:20;;;;;;;;;;;;;;;;;;2097466;28;19924;-45
2022/03/31 04:33:21;;;;;;;;;;;;;;;;;;2097927;28;19950;-45
2022/03/31 04:34:22;;;;;;;;;;;;;;;;;;2097812;28;19970;-45
2022/03/31 04:35:23;;;;;;;;;;;;;;;;;;2098070;28;19933;-45
2022/03/31 04:36:24;;;;;;;;;;;;;;;;;;2098170;28;20412;-46
2022/03/31 04:37:25;;;;;;;;;;;;;;;;;;2097787;28;20467;-45
2022/03/31 04:38:26;;;;;;;;;;;;;;;;;;2098331;28;19933;-45
2022/03/31 04:39:27;;;;;;;;;;;;;;;;;;2097936;28;19924;-46
2022/03/31 04:40:28;;;;;;;;;;;;;;;;;;2098118;28;19924;-45
2022/03/31 04:41:29;;;;;;;;;;;;;;;;;;2097824;28;19931;-45
2022/03/31 04:42:30;;;;;;;;;;;;;;;;;;2097986;28;19935;-45
2022/03/31 04:43:31;;;;;;;;;;;;;;;;;;2097965;28;20367;-45
2022/03/31 04:44:32;;;;;;;;;;;;;;;;;;2098130;28;19924;-51
2022/03/31 04:45:33;;;;;;;;;;;;;;;;;;2097444;28;19924;-50
2022/03/31 04:46:34;;;;;;;;;;;;;;;;;;2097739;28;19928;-51
2022/03/31 04:47:35;;;;;;;;;;;;;;;;;;2097794;28;19986;-51
2022/03/31 04:48:39;;;;;;;;;;;;;;;;;;2097739;28;19998;-53
2022/03/31 04:49:40;;;;;;;;;;;;;;;;;;2098234;28;19925;-45
2022/03/31 04:50:41;;;;;;;;;;;;;;;;;;2097751;28;20507;-52
2022/03/31 04:51:42;;;;;;;;;;;;;;;;;;2098143;28;20381;-50
2022/03/31 04:52:43;;;;;;;;;;;;;;;;;;2097692;28;19967;-50
2022/03/31 04:53:44;;;;;;;;;;;;;;;;;;2097733;28;19948;-51
2022/03/31 04:54:46;;;;;;;;;;;;;;;;;;2097601;28;19980;-53
2022/03/31 04:55:47;;;;;;;;;;;;;;;;;;2098142;28;19924;-44
2022/03/31 04:56:48;;;;;;;;;;;;;;;;;;2097647;28;20007;-45
2022/03/31 04:57:49;;;;;;;;;;;;;;;;;;2097742;28;20403;-43
2022/03/31 04:58:50;;;;;;;;;;;;;;;;;;2097586;28;20028;-44
2022/03/31 04:59:51;;;;;;;;;;;;;;;;;;2097706;28;19935;-45
2022/03/31 05:00:52;;;;;;;;;;;;;;;;;;2097842;28;19925;-44
2022/03/31 05:01:53;;;;;;;;;;;;;;;;;;2097627;28;19967;-44
2022/03/31 05:02:55;;;;;;;;;;;;;;;;;;2097791;28;19924;-45
2022/03/31 05:03:56;;;;;;;;;;;;;;;;;;2097692;28;19925;-44
2022/03/31 05:04:57;;;;;;;;;;;;;;;;;;2097799;28;19928;-45
2022/03/31 05:05:58;;;;;;;;;;;;;;;;;;2097969;28;20299;-51
2022/03/31 05:06:59;;;;;;;;;;;;;;;;;;2097728;28;19924;-44
2022/03/31 05:08:00;;;;;;;;;;;;;;;;;;2097614;28;19967;-43
2022/03/31 05:09:01;;;;;;;;;;;;;;;;;;2097874;28;19928;-51
2022/03/31 05:10:02;;;;;;;;;;;;;;;;;;2097614;28;19982;-49
2022/03/31 05:11:03;;;;;;;;;;;;;;;;;;2097373;28;20378;-50
2022/03/31 05:12:05;;;;;;;;;;;;;;;;;;2099205;28;19930;-52
2022/03/31 05:13:06;;;;;;;;;;;;;;;;;;2099143;28;19974;-49
2022/03/31 05:14:07;;;;;;;;;;;;;;;;;;2099271;28;19928;-51
2022/03/31 05:15:08;;;;;;;;;;;;;;;;;;2099399;28;19925;-51
2022/03/31 05:16:09;;;;;;;;;;;;;;;;;;2099023;28;20389;-50
2022/03/31 05:17:10;;;;;;;;;;;;;;;;;;2099238;28;20296;-50
2022/03/31 05:18:12;;;;;;;;;;;;;;;;;;2099280;28;19936;-45
2022/03/31 05:19:13;;;;;;;;;;;;;;;;;;2099272;28;20348;-49
2022/03/31 05:20:14;;;;;;;;;;;;;;;;;;2099168;28;19925;-49
2022/03/31 05:21:15;;;;;;;;;;;;;;;;;;2099043;28;20310;-49
2022/03/31 05:22:16;;;;;;;;;;;;;;;;;;2099104;28;19931;-51
2022/03/31 05:23:17;;;;;;;;;;;;;;;;;;2099093;28;19924;-51
2022/03/31 05:24:18;;;;;;;;;;;;;;;;;;2099136;28;19924;-48
2022/03/31 05:25:19;;;;;;;;;;;;;;;;;;2099220;28;19928;-50
2022/03/31 05:26:20;;;;;;;;;;;;;;;;;;2099089;28;20415;-49
2022/03/31 05:27:21;;;;;;;;;;;;;;;;;;2098714;28;19935;-48
2022/03/31 05:28:22;;;;;;;;;;;;;;;;;;2099016;28;20305;-52
2022/03/31 05:29:23;;;;;;;;;;;;;;;;;;2098683;28;19925;-49
2022/03/31 05:30:24;;;;;;;;;;;;;;;;;;2099159;28;20023;-51
2022/03/31 05:31:25;;;;;;;;;;;;;;;;;;2098959;28;20417;-51
2022/03/31 05:32:26;;;;;;;;;;;;;;;;;;2098987;28;19931;-44
2022/03/31 05:33:28;;;;;;;;;;;;;;;;;;2099166;28;19931;-53
2022/03/31 05:34:29;;;;;;;;;;;;;;;;;;2099086;28;20297;-51
2022/03/31 05:35:31;;;;;;;;;;;;;;;;;;2099514;28;19931;-48
2022/03/31 05:36:32;;;;;;;;;;;;;;;;;;2098962;28;19928;-49
2022/03/31 05:37:33;;;;;;;;;;;;;;;;;;2098946;28;20007;-50
2022/03/31 05:38:34;;;;;;;;;;;;;;;;;;2098990;28;19924;-51
2022/03/31 05:39:35;;;;;;;;;;;;;;;;;;2099078;28;20379;-50
2022/03/31 05:40:37;;;;;;;;;;;;;;;;;;2099084;28;19924;-49
2022/03/31 05:41:38;;;;;;;;;;;;;;;;;;2098931;28;19986;-50
2022/03/31 05:42:39;;;;;;;;;;;;;;;;;;2099131;28;19929;-45
2022/03/31 05:43:40;;;;;;;;;;;;;;;;;;2099506;28;19932;-45
2022/03/31 05:44:41;;;;;;;;;;;;;;;;;;2098862;28;19929;-42
2022/03/31 05:45:42;;;;;;;;;;;;;;;;;;2099079;28;19946;-45
2022/03/31 05:46:44;;;;;;;;;;;;;;;;;;2098915;28;20374;-49
2022/03/31 05:47:45;;;;;;;;;;;;;;;;;;2099007;28;19924;-48
2022/03/31 05:48:46;;;;;;;;;;;;;;;;;;2098574;28;19933;-48
2022/03/31 05:49:48;;;;;;;;;;;;;;;;;;2098703;28;19924;-49
2022/03/31 05:50:49;;;;;;;;;;;;;;;;;;2090703;28;19932;-49
2022/03/31 05:51:50;;;;;;;;;;;;;;;;;;2097177;28;20047;-48
2022/03/31 05:52:51;;;;;;;;;;;;;;;;;;2099052;28;20394;-43
2022/03/31 05:53:52;;;;;;;;;;;;;;;;;;2098425;28;19929;-44
2022/03/31 05:54:53;;;;;;;;;;;;;;;;;;2098666;28;19939;-43
2022/03/31 05:55:54;;;;;;;;;;;;;;;;;;2098674;28;20015;-43
2022/03/31 05:56:55;;;;;;;;;;;;;;;;;;2098216;28;19933;-43
2022/03/31 05:57:58;;;;;;;;;;;;;;;;;;2098692;28;19977;-45
2022/03/31 05:59:00;;;;;;;;;;;;;;;;;;2098632;28;19929;-43
2022/03/31 06:00:02;;;;;;;;;;;;;;;;;;2098990;28;20336;-44
2022/03/31 06:01:04;;;;;;;;;;;;;;;;;;2098705;28;19938;-44
2022/03/31 06:02:05;;;;;;;;;;;;;;;;;;2098909;28;19981;-43
2022/03/31 06:03:07;;;;;;;;;;;;;;;;;;2098605;28;19960;-44
2022/03/31 06:04:09;;;;;;;;;;;;;;;;;;2098824;28;19935;-43
2022/03/31 06:05:11;;;;;;;;;;;;;;;;;;2098777;28;19925;-43
2022/03/31 06:06:12;;;;;;;;;;;;;;;;;;2098740;28;19924;-43
2022/03/31 06:07:14;;;;;;;;;;;;;;;;;;2098789;28;20294;-44
2022/03/31 06:08:15;;;;;;;;;;;;;;;;;;2098799;28;19931;-43
2022/03/31 06:09:17;;;;;;;;;;;;;;;;;;2098844;28;19925;-43
2022/03/31 06:10:18;;;;;;;;;;;;;;;;;;2098765;28;19991;-43
2022/03/31 06:11:20;;;;;;;;;;;;;;;;;;2098744;28;20423;-44
2022/03/31 06:12:21;;;;;;;;;;;;;;;;;;2098724;28;20412;-43
2022/03/31 06:13:23;;;;;;;;;;;;;;;;;;2099061;28;19924;-45
2022/03/31 06:14:24;;;;;;;;;;;;;;;;;;2098695;28;20358;-44
2022/03/31 06:15:27;;;;;;;;;;;;;;;;;;2098823;28;20380;-49
2022/03/31 06:16:29;;;;;;;;;;;;;;;;;;2098457;28;19924;-44
2022/03/31 06:17:31;;;;;;;;;;;;;;;;;;2099037;28;19929;-49
2022/03/31 06:18:32;;;;;;;;;;;;;;;;;;2098564;28;20037;-50
2022/03/31 06:19:35;;;;;;;;;;;;;;;;;;2098704;28;19968;-49
2022/03/31 06:20:36;;;;;;;;;;;;;;;;;;2098879;28;19931;-44
2022/03/31 06:21:38;;;;;;;;;;;;;;;;;;2098601;28;20059;-51
2022/03/31 06:22:40;;;;;;;;;;;;;;;;;;2098605;28;19931;-50
2022/03/31 06:23:45;;;;;;;;;;;;;;;;;;2098877;28;20399;-48
2022/03/31 06:24:47;;;;;;;;;;;;;;;;;;2098630;28;19931;-49
2022/03/31 06:25:48;;;;;;;;;;;;;;;;;;2098489;28;20367;-52
2022/03/31 06:26:49;;;;;;;;;;;;;;;;;;2098834;28;20007;-45
2022/03/31 06:27:51;;;;;;;;;;;;;;;;;;2098679;28;20019;-44
2022/03/31 06:28:53;;;;;;;;;;;;;;;;;;2098719;28;19924;-44
2022/03/31 06:29:54;;;;;;;;;;;;;;;;;;2098769;28;20016;-51
2022/03/31 06:30:55;;;;;;;;;;;;;;;;;;2098648;28;20343;-49
2022/03/31 06:31:57;;;;;;;;;;;;;;;;;;2098545;28;19924;-50
2022/03/31 06:32:59;;;;;;;;;;;;;;;;;;2098399;28;19925;-50
2022/03/31 06:34:00;;;;;;;;;;;;;;;;;;2098596;28;20412;-49
2022/03/31 06:35:02;;;;;;;;;;;;;;;;;;2098635;28;19990;-49
2022/03/31 06:36:03;;;;;;;;;;;;;;;;;;2098706;28;19924;-50
2022/03/31 06:37:05;;;;;;;;;;;;;;;;;;2098916;28;19925;-51
2022/03/31 06:38:07;;;;;;;;;;;;;;;;;;2098616;28;20288;-50
2022/03/31 06:39:08;;;;;;;;;;;;;;;;;;2098507;28;20345;-51
2022/03/31 06:40:10;;;;;;;;;;;;;;;;;;2098814;28;20039;-44
2022/03/31 06:41:14;;;;;;;;;;;;;;;;;;2098508;28;20286;-44
2022/03/31 06:42:15;;;;;;;;;;;;;;;;;;2098669;28;20411;-44
2022/03/31 06:43:17;;;;;;;;;;;;;;;;;;2098714;28;20042;-44
2022/03/31 06:44:21;;;;;;;;;;;;;;;;;;2098624;28;19924;-44
2022/03/31 06:45:23;;;;;;;;;;;;;;;;;;2098688;28;20018;-45
2022/03/31 06:46:28;;;;;;;;;;;;;;;;;;2098810;28;19925;-50
2022/03/31 06:47:30;;;;;;;;;;;;;;;;;;2098580;28;19967;-49
2022/03/31 06:48:33;;;;;;;;;;;;;;;;;;2098678;28;19928;-45
2022/03/31 06:49:34;;;;;;;;;;;;;;;;;;2098635;28;20044;-45
2022/03/31 06:50:35;;;;;;;;;;;;;;;;;;2098556;28;20311;-44
2022/03/31 06:51:37;;;;;;;;;;;;;;;;;;2098558;28;19985;-53
2022/03/31 06:52:38;;;;;;;;;;;;;;;;;;2098553;28;20327;-49
2022/03/31 06:53:40;;;;;;;;;;;;;;;;;;2098419;28;19990;-44
2022/03/31 06:54:41;;;;;;;;;;;;;;;;;;2098488;28;20008;-44
2022/03/31 06:55:43;;;;;;;;;;;;;;;;;;2099244;28;19970;-43
2022/03/31 06:56:44;;;;;;;;;;;;;;;;;;2098540;28;19926;-49
2022/03/31 06:57:46;;;;;;;;;;;;;;;;;;2098388;28;19963;-44
2022/03/31 06:58:48;;;;;;;;;;;;;;;;;;2098443;28;19929;-44
2022/03/31 06:59:49;;;;;;;;;;;;;;;;;;2098477;28;19997;-43
2022/03/31 07:00:51;;;;;;;;;;;;;;;;;;2098713;28;20386;-44
2022/03/31 07:01:53;;;;;;;;;;;;;;;;;;2098648;28;19969;-50